sensor_id;sensor_type;location;lat;lon;timestamp;temperature;humidity
72650;SHT31;61467;50.674;4.618;2022-12-07T00:01:18;6.26;80.87
72650;SHT31;61467;50.674;4.618;2022-12-07T00:03:47;6.30;80.50
72650;SHT31;61467;50.674;4.618;2022-12-07T00:06:15;6.26;80.83
72650;SHT31;61467;50.674;4.618;2022-12-07T00:08:44;6.02;81.52
72650;SHT31;61467;50.674;4.618;2022-12-07T00:11:13;6.06;81.57
72650;SHT31;61467;50.674;4.618;2022-12-07T00:13:42;6.20;80.99
72650;SHT31;61467;50.674;4.618;2022-12-07T00:16:10;6.05;81.38
72650;SHT31;61467;50.674;4.618;2022-12-07T00:18:38;6.30;80.94
72650;SHT31;61467;50.674;4.618;2022-12-07T00:21:06;6.26;80.90
72650;SHT31;61467;50.674;4.618;2022-12-07T00:23:33;6.27;80.95
72650;SHT31;61467;50.674;4.618;2022-12-07T00:26:07;6.37;80.52
72650;SHT31;61467;50.674;4.618;2022-12-07T00:28:34;6.09;80.90
72650;SHT31;61467;50.674;4.618;2022-12-07T00:31:02;6.32;80.52
72650;SHT31;61467;50.674;4.618;2022-12-07T00:33:29;6.27;80.48
72650;SHT31;61467;50.674;4.618;2022-12-07T00:35:56;6.01;81.17
72650;SHT31;61467;50.674;4.618;2022-12-07T00:38:23;6.19;80.86
72650;SHT31;61467;50.674;4.618;2022-12-07T00:40:55;6.22;80.85
72650;SHT31;61467;50.674;4.618;2022-12-07T00:43:23;6.07;81.01
72650;SHT31;61467;50.674;4.618;2022-12-07T00:45:50;6.07;81.16
72650;SHT31;61467;50.674;4.618;2022-12-07T00:48:17;5.89;81.34
72650;SHT31;61467;50.674;4.618;2022-12-07T00:50:43;5.98;81.40
72650;SHT31;61467;50.674;4.618;2022-12-07T00:53:10;5.98;80.94
72650;SHT31;61467;50.674;4.618;2022-12-07T00:55:37;5.95;81.06
72650;SHT31;61467;50.674;4.618;2022-12-07T00:58:05;5.86;81.73
72650;SHT31;61467;50.674;4.618;2022-12-07T01:00:35;5.81;81.66
72650;SHT31;61467;50.674;4.618;2022-12-07T01:03:03;5.89;81.83
72650;SHT31;61467;50.674;4.618;2022-12-07T01:05:30;5.92;81.29
72650;SHT31;61467;50.674;4.618;2022-12-07T01:07:57;6.02;81.02
72650;SHT31;61467;50.674;4.618;2022-12-07T01:10:24;6.10;80.58
72650;SHT31;61467;50.674;4.618;2022-12-07T01:12:51;5.98;80.91
72650;SHT31;61467;50.674;4.618;2022-12-07T01:15:18;6.03;80.71
72650;SHT31;61467;50.674;4.618;2022-12-07T01:17:46;5.91;80.76
72650;SHT31;61467;50.674;4.618;2022-12-07T01:20:13;5.95;80.83
72650;SHT31;61467;50.674;4.618;2022-12-07T01:22:42;6.05;80.67
72650;SHT31;61467;50.674;4.618;2022-12-07T01:25:10;6.14;80.40
72650;SHT31;61467;50.674;4.618;2022-12-07T01:27:37;6.12;80.17
72650;SHT31;61467;50.674;4.618;2022-12-07T01:30:05;6.07;80.19
72650;SHT31;61467;50.674;4.618;2022-12-07T01:32:33;6.12;80.32
72650;SHT31;61467;50.674;4.618;2022-12-07T01:35:01;6.14;80.28
72650;SHT31;61467;50.674;4.618;2022-12-07T01:37:27;6.01;80.60
72650;SHT31;61467;50.674;4.618;2022-12-07T01:39:54;5.99;80.64
72650;SHT31;61467;50.674;4.618;2022-12-07T01:42:21;5.92;80.79
72650;SHT31;61467;50.674;4.618;2022-12-07T01:48:03;5.91;80.85
72650;SHT31;61467;50.674;4.618;2022-12-07T01:50:33;6.02;80.62
72650;SHT31;61467;50.674;4.618;2022-12-07T01:53:02;6.06;80.54
72650;SHT31;61467;50.674;4.618;2022-12-07T01:55:30;6.16;80.36
72650;SHT31;61467;50.674;4.618;2022-12-07T01:57:57;5.91;80.87
72650;SHT31;61467;50.674;4.618;2022-12-07T02:00:24;5.96;80.73
72650;SHT31;61467;50.674;4.618;2022-12-07T02:02:55;5.78;81.09
72650;SHT31;61467;50.674;4.618;2022-12-07T02:05:23;5.79;80.83
72650;SHT31;61467;50.674;4.618;2022-12-07T02:07:55;5.65;81.52
72650;SHT31;61467;50.674;4.618;2022-12-07T02:10:24;5.42;82.63
72650;SHT31;61467;50.674;4.618;2022-12-07T02:12:54;5.59;82.29
72650;SHT31;61467;50.674;4.618;2022-12-07T02:15:26;5.28;83.17
72650;SHT31;61467;50.674;4.618;2022-12-07T02:18:03;5.38;82.90
72650;SHT31;61467;50.674;4.618;2022-12-07T02:20:33;5.58;82.80
72650;SHT31;61467;50.674;4.618;2022-12-07T02:23:38;5.51;82.26
72650;SHT31;61467;50.674;4.618;2022-12-07T02:26:23;5.66;82.08
72650;SHT31;61467;50.674;4.618;2022-12-07T02:29:10;5.52;82.63
72650;SHT31;61467;50.674;4.618;2022-12-07T02:31:45;5.61;82.38
72650;SHT31;61467;50.674;4.618;2022-12-07T02:34:19;5.68;82.07
72650;SHT31;61467;50.674;4.618;2022-12-07T02:36:53;5.72;82.23
72650;SHT31;61467;50.674;4.618;2022-12-07T02:39:28;5.76;81.86
72650;SHT31;61467;50.674;4.618;2022-12-07T02:42:02;5.66;81.79
72650;SHT31;61467;50.674;4.618;2022-12-07T02:44:31;5.73;81.95
72650;SHT31;61467;50.674;4.618;2022-12-07T02:47:02;5.72;81.64
72650;SHT31;61467;50.674;4.618;2022-12-07T02:49:30;5.45;82.60
72650;SHT31;61467;50.674;4.618;2022-12-07T02:51:57;5.59;82.60
72650;SHT31;61467;50.674;4.618;2022-12-07T02:54:24;5.61;82.31
72650;SHT31;61467;50.674;4.618;2022-12-07T02:56:57;5.69;82.19
72650;SHT31;61467;50.674;4.618;2022-12-07T02:59:36;5.56;82.51
72650;SHT31;61467;50.674;4.618;2022-12-07T03:02:22;5.59;82.40
72650;SHT31;61467;50.674;4.618;2022-12-07T03:05:00;5.68;81.55
72650;SHT31;61467;50.674;4.618;2022-12-07T03:07:33;5.69;81.73
72650;SHT31;61467;50.674;4.618;2022-12-07T03:10:10;5.72;81.99
72650;SHT31;61467;50.674;4.618;2022-12-07T03:12:44;5.68;81.80
72650;SHT31;61467;50.674;4.618;2022-12-07T03:15:20;5.72;81.71
72650;SHT31;61467;50.674;4.618;2022-12-07T03:17:49;5.82;81.64
72650;SHT31;61467;50.674;4.618;2022-12-07T03:20:19;5.93;81.34
72650;SHT31;61467;50.674;4.618;2022-12-07T03:22:48;5.78;81.20
72650;SHT31;61467;50.674;4.618;2022-12-07T03:25:16;5.91;81.32
72650;SHT31;61467;50.674;4.618;2022-12-07T03:27:46;5.99;80.90
72650;SHT31;61467;50.674;4.618;2022-12-07T03:30:20;6.10;80.76
72650;SHT31;61467;50.674;4.618;2022-12-07T03:32:50;5.96;80.79
72650;SHT31;61467;50.674;4.618;2022-12-07T03:35:22;6.05;80.68
72650;SHT31;61467;50.674;4.618;2022-12-07T03:37:54;5.92;80.82
72650;SHT31;61467;50.674;4.618;2022-12-07T03:40:26;5.69;81.32
72650;SHT31;61467;50.674;4.618;2022-12-07T03:42:54;5.78;80.92
72650;SHT31;61467;50.674;4.618;2022-12-07T03:45:32;5.81;80.70
72650;SHT31;61467;50.674;4.618;2022-12-07T03:48:05;5.66;81.11
72650;SHT31;61467;50.674;4.618;2022-12-07T03:50:38;5.58;81.55
72650;SHT31;61467;50.674;4.618;2022-12-07T03:53:11;5.64;81.24
72650;SHT31;61467;50.674;4.618;2022-12-07T03:55:42;5.54;81.19
72650;SHT31;61467;50.674;4.618;2022-12-07T03:58:12;5.76;81.00
72650;SHT31;61467;50.674;4.618;2022-12-07T04:00:41;5.69;80.62
72650;SHT31;61467;50.674;4.618;2022-12-07T04:03:09;5.76;80.60
72650;SHT31;61467;50.674;4.618;2022-12-07T04:05:36;5.66;80.44
72650;SHT31;61467;50.674;4.618;2022-12-07T04:08:03;5.59;80.94
72650;SHT31;61467;50.674;4.618;2022-12-07T04:10:30;5.61;81.01
72650;SHT31;61467;50.674;4.618;2022-12-07T04:12:57;5.73;80.96
72650;SHT31;61467;50.674;4.618;2022-12-07T04:15:24;5.75;80.65
72650;SHT31;61467;50.674;4.618;2022-12-07T04:17:52;5.83;80.61
72650;SHT31;61467;50.674;4.618;2022-12-07T04:20:19;5.81;80.54
72650;SHT31;61467;50.674;4.618;2022-12-07T04:22:46;5.66;80.88
72650;SHT31;61467;50.674;4.618;2022-12-07T04:25:13;5.71;81.08
72650;SHT31;61467;50.674;4.618;2022-12-07T04:27:39;5.72;81.33
72650;SHT31;61467;50.674;4.618;2022-12-07T04:30:07;5.72;81.38
72650;SHT31;61467;50.674;4.618;2022-12-07T04:32:34;5.85;81.13
72650;SHT31;61467;50.674;4.618;2022-12-07T04:35:03;5.78;81.02
72650;SHT31;61467;50.674;4.618;2022-12-07T04:37:30;5.81;81.87
72650;SHT31;61467;50.674;4.618;2022-12-07T04:39:57;5.93;81.28
72650;SHT31;61467;50.674;4.618;2022-12-07T04:42:23;5.93;81.15
72650;SHT31;61467;50.674;4.618;2022-12-07T04:44:50;5.92;81.35
72650;SHT31;61467;50.674;4.618;2022-12-07T04:47:17;5.79;81.69
72650;SHT31;61467;50.674;4.618;2022-12-07T04:49:44;5.82;81.51
72650;SHT31;61467;50.674;4.618;2022-12-07T04:52:12;5.68;81.15
72650;SHT31;61467;50.674;4.618;2022-12-07T04:54:39;5.75;81.23
72650;SHT31;61467;50.674;4.618;2022-12-07T04:57:05;5.71;81.40
72650;SHT31;61467;50.674;4.618;2022-12-07T04:59:32;5.59;81.94
72650;SHT31;61467;50.674;4.618;2022-12-07T05:01:59;5.68;82.09
72650;SHT31;61467;50.674;4.618;2022-12-07T05:04:26;5.73;81.63
72650;SHT31;61467;50.674;4.618;2022-12-07T05:06:53;5.62;82.26
72650;SHT31;61467;50.674;4.618;2022-12-07T05:09:21;5.62;82.62
72650;SHT31;61467;50.674;4.618;2022-12-07T05:11:47;5.64;82.76
72650;SHT31;61467;50.674;4.618;2022-12-07T05:14:16;5.73;82.50
72650;SHT31;61467;50.674;4.618;2022-12-07T05:16:44;5.93;81.95
72650;SHT31;61467;50.674;4.618;2022-12-07T05:19:12;5.83;81.79
72650;SHT31;61467;50.674;4.618;2022-12-07T05:21:39;5.95;81.75
72650;SHT31;61467;50.674;4.618;2022-12-07T05:24:08;5.83;81.92
72650;SHT31;61467;50.674;4.618;2022-12-07T05:26:37;5.92;81.70
72650;SHT31;61467;50.674;4.618;2022-12-07T05:29:04;5.95;81.52
72650;SHT31;61467;50.674;4.618;2022-12-07T05:31:31;5.78;81.65
72650;SHT31;61467;50.674;4.618;2022-12-07T05:33:58;5.79;81.58
72650;SHT31;61467;50.674;4.618;2022-12-07T05:36:24;5.79;82.05
72650;SHT31;61467;50.674;4.618;2022-12-07T05:38:53;5.64;82.44
72650;SHT31;61467;50.674;4.618;2022-12-07T05:41:20;5.72;81.87
72650;SHT31;61467;50.674;4.618;2022-12-07T05:44:06;5.81;81.38
72650;SHT31;61467;50.674;4.618;2022-12-07T05:46:33;5.73;81.95
72650;SHT31;61467;50.674;4.618;2022-12-07T05:49:00;5.81;81.46
72650;SHT31;61467;50.674;4.618;2022-12-07T05:51:27;5.95;81.34
72650;SHT31;61467;50.674;4.618;2022-12-07T05:53:54;5.81;81.15
72650;SHT31;61467;50.674;4.618;2022-12-07T05:56:21;5.61;82.00
72650;SHT31;61467;50.674;4.618;2022-12-07T05:58:48;5.81;81.26
72650;SHT31;61467;50.674;4.618;2022-12-07T06:01:33;5.82;81.24
72650;SHT31;61467;50.674;4.618;2022-12-07T06:04:00;5.75;81.36
72650;SHT31;61467;50.674;4.618;2022-12-07T06:06:27;5.79;81.77
72650;SHT31;61467;50.674;4.618;2022-12-07T06:08:53;5.66;81.56
72650;SHT31;61467;50.674;4.618;2022-12-07T06:11:20;5.45;82.28
72650;SHT31;61467;50.674;4.618;2022-12-07T06:14:06;5.72;81.64
72650;SHT31;61467;50.674;4.618;2022-12-07T06:16:34;5.69;81.88
72650;SHT31;61467;50.674;4.618;2022-12-07T06:19:01;5.75;81.51
72650;SHT31;61467;50.674;4.618;2022-12-07T06:21:28;5.66;81.55
72650;SHT31;61467;50.674;4.618;2022-12-07T06:23:55;5.85;81.00
72650;SHT31;61467;50.674;4.618;2022-12-07T06:26:22;5.83;81.09
72650;SHT31;61467;50.674;4.618;2022-12-07T06:28:49;5.81;81.16
72650;SHT31;61467;50.674;4.618;2022-12-07T06:31:16;5.79;80.86
72650;SHT31;61467;50.674;4.618;2022-12-07T06:33:44;5.83;81.13
72650;SHT31;61467;50.674;4.618;2022-12-07T06:36:11;5.96;80.97
72650;SHT31;61467;50.674;4.618;2022-12-07T06:38:38;5.89;80.47
72650;SHT31;61467;50.674;4.618;2022-12-07T06:41:05;5.88;80.56
72650;SHT31;61467;50.674;4.618;2022-12-07T06:43:32;5.79;80.40
72650;SHT31;61467;50.674;4.618;2022-12-07T06:45:59;5.66;81.15
72650;SHT31;61467;50.674;4.618;2022-12-07T06:48:26;5.61;81.50
72650;SHT31;61467;50.674;4.618;2022-12-07T06:50:54;5.69;81.26
72650;SHT31;61467;50.674;4.618;2022-12-07T06:53:21;5.69;81.13
72650;SHT31;61467;50.674;4.618;2022-12-07T06:55:48;5.72;80.97
72650;SHT31;61467;50.674;4.618;2022-12-07T06:58:15;5.59;81.09
72650;SHT31;61467;50.674;4.618;2022-12-07T07:00:42;5.65;81.09
72650;SHT31;61467;50.674;4.618;2022-12-07T07:03:08;5.72;81.02
72650;SHT31;61467;50.674;4.618;2022-12-07T07:05:35;5.58;81.40
72650;SHT31;61467;50.674;4.618;2022-12-07T07:08:03;5.59;81.14
72650;SHT31;61467;50.674;4.618;2022-12-07T07:10:30;5.69;81.21
72650;SHT31;61467;50.674;4.618;2022-12-07T07:12:57;5.47;81.46
72650;SHT31;61467;50.674;4.618;2022-12-07T07:15:24;5.56;81.44
72650;SHT31;61467;50.674;4.618;2022-12-07T07:17:51;5.55;81.34
72650;SHT31;61467;50.674;4.618;2022-12-07T07:20:18;5.71;81.15
72650;SHT31;61467;50.674;4.618;2022-12-07T07:22:44;5.56;81.24
72650;SHT31;61467;50.674;4.618;2022-12-07T07:25:13;5.27;82.59
72650;SHT31;61467;50.674;4.618;2022-12-07T07:27:39;5.48;81.79
72650;SHT31;61467;50.674;4.618;2022-12-07T07:30:07;5.34;82.19
72650;SHT31;61467;50.674;4.618;2022-12-07T07:32:34;5.44;82.07
72650;SHT31;61467;50.674;4.618;2022-12-07T07:35:01;5.47;81.44
72650;SHT31;61467;50.674;4.618;2022-12-07T07:37:28;5.45;82.10
72650;SHT31;61467;50.674;4.618;2022-12-07T07:39:54;5.44;81.40
72650;SHT31;61467;50.674;4.618;2022-12-07T07:42:23;5.42;81.76
72650;SHT31;61467;50.674;4.618;2022-12-07T07:44:49;5.68;81.20
72650;SHT31;61467;50.674;4.618;2022-12-07T07:47:16;5.61;81.27
72650;SHT31;61467;50.674;4.618;2022-12-07T07:49:43;5.71;80.93
72650;SHT31;61467;50.674;4.618;2022-12-07T07:52:10;5.75;80.50
72650;SHT31;61467;50.674;4.618;2022-12-07T07:54:37;5.85;80.56
72650;SHT31;61467;50.674;4.618;2022-12-07T07:57:03;5.76;80.90
72650;SHT31;61467;50.674;4.618;2022-12-07T07:59:31;5.79;80.77
72650;SHT31;61467;50.674;4.618;2022-12-07T08:01:58;5.81;80.64
72650;SHT31;61467;50.674;4.618;2022-12-07T08:04:25;5.69;80.39
72650;SHT31;61467;50.674;4.618;2022-12-07T08:06:52;5.79;80.52
72650;SHT31;61467;50.674;4.618;2022-12-07T08:09:18;5.81;80.44
72650;SHT31;61467;50.674;4.618;2022-12-07T08:11:45;6.01;80.07
72650;SHT31;61467;50.674;4.618;2022-12-07T08:14:12;6.01;80.14
72650;SHT31;61467;50.674;4.618;2022-12-07T08:16:40;6.06;79.93
72650;SHT31;61467;50.674;4.618;2022-12-07T08:19:07;6.05;79.87
72650;SHT31;61467;50.674;4.618;2022-12-07T08:21:34;5.93;80.14
72650;SHT31;61467;50.674;4.618;2022-12-07T08:24:00;5.96;80.21
72650;SHT31;61467;50.674;4.618;2022-12-07T08:26:27;5.98;80.21
72650;SHT31;61467;50.674;4.618;2022-12-07T08:28:54;6.01;79.97
72650;SHT31;61467;50.674;4.618;2022-12-07T08:31:21;6.02;80.07
72650;SHT31;61467;50.674;4.618;2022-12-07T08:33:49;5.96;80.20
72650;SHT31;61467;50.674;4.618;2022-12-07T08:36:16;5.96;80.07
72650;SHT31;61467;50.674;4.618;2022-12-07T08:38:43;6.07;79.91
72650;SHT31;61467;50.674;4.618;2022-12-07T08:41:10;6.10;79.71
72650;SHT31;61467;50.674;4.618;2022-12-07T08:43:38;6.06;79.53
72650;SHT31;61467;50.674;4.618;2022-12-07T08:46:09;6.12;79.52
72650;SHT31;61467;50.674;4.618;2022-12-07T08:48:39;6.07;79.39
72650;SHT31;61467;50.674;4.618;2022-12-07T08:51:08;5.96;79.39
72650;SHT31;61467;50.674;4.618;2022-12-07T08:53:37;5.95;79.58
72650;SHT31;61467;50.674;4.618;2022-12-07T08:56:05;5.96;79.52
72650;SHT31;61467;50.674;4.618;2022-12-07T08:58:35;5.93;79.54
72650;SHT31;61467;50.674;4.618;2022-12-07T09:01:03;5.99;79.62
72650;SHT31;61467;50.674;4.618;2022-12-07T09:03:30;5.98;79.99
72650;SHT31;61467;50.674;4.618;2022-12-07T09:05:57;6.03;80.08
72650;SHT31;61467;50.674;4.618;2022-12-07T09:08:29;6.19;80.03
72650;SHT31;61467;50.674;4.618;2022-12-07T09:10:58;6.23;80.07
72650;SHT31;61467;50.674;4.618;2022-12-07T09:13:24;6.38;80.04
72650;SHT31;61467;50.674;4.618;2022-12-07T09:15:51;6.48;79.87
72650;SHT31;61467;50.674;4.618;2022-12-07T09:18:18;6.50;79.66
72650;SHT31;61467;50.674;4.618;2022-12-07T09:20:45;6.54;79.59
72650;SHT31;61467;50.674;4.618;2022-12-07T09:23:11;6.53;79.66
72650;SHT31;61467;50.674;4.618;2022-12-07T09:25:39;6.57;79.45
72650;SHT31;61467;50.674;4.618;2022-12-07T09:28:06;6.45;79.43
72650;SHT31;61467;50.674;4.618;2022-12-07T09:30:34;6.41;79.82
72650;SHT31;61467;50.674;4.618;2022-12-07T09:33:01;6.55;79.90
72650;SHT31;61467;50.674;4.618;2022-12-07T09:35:28;6.33;79.67
72650;SHT31;61467;50.674;4.618;2022-12-07T09:37:55;6.47;79.92
72650;SHT31;61467;50.674;4.618;2022-12-07T09:40:23;6.64;79.51
72650;SHT31;61467;50.674;4.618;2022-12-07T09:42:53;6.61;79.49
72650;SHT31;61467;50.674;4.618;2022-12-07T09:45:24;6.84;79.19
72650;SHT31;61467;50.674;4.618;2022-12-07T09:47:52;6.94;79.08
72650;SHT31;61467;50.674;4.618;2022-12-07T09:50:21;6.64;79.38
72650;SHT31;61467;50.674;4.618;2022-12-07T09:52:49;6.68;80.12
72650;SHT31;61467;50.674;4.618;2022-12-07T09:55:19;6.71;80.20
72650;SHT31;61467;50.674;4.618;2022-12-07T09:57:48;6.64;80.61
72650;SHT31;61467;50.674;4.618;2022-12-07T10:00:20;6.87;80.23
72650;SHT31;61467;50.674;4.618;2022-12-07T10:02:51;6.89;79.83
72650;SHT31;61467;50.674;4.618;2022-12-07T10:05:22;6.99;80.05
72650;SHT31;61467;50.674;4.618;2022-12-07T10:07:51;6.96;79.42
72650;SHT31;61467;50.674;4.618;2022-12-07T10:10:22;6.96;79.36
72650;SHT31;61467;50.674;4.618;2022-12-07T10:12:57;6.67;80.23
72650;SHT31;61467;50.674;4.618;2022-12-07T10:15:41;6.81;79.56
72650;SHT31;61467;50.674;4.618;2022-12-07T10:18:18;6.55;80.65
72650;SHT31;61467;50.674;4.618;2022-12-07T10:20:46;6.58;81.16
72650;SHT31;61467;50.674;4.618;2022-12-07T10:23:15;6.63;80.82
72650;SHT31;61467;50.674;4.618;2022-12-07T10:25:42;6.74;80.65
72650;SHT31;61467;50.674;4.618;2022-12-07T10:28:13;6.55;80.80
72650;SHT31;61467;50.674;4.618;2022-12-07T10:30:53;6.74;80.57
72650;SHT31;61467;50.674;4.618;2022-12-07T10:33:31;7.03;80.49
72650;SHT31;61467;50.674;4.618;2022-12-07T10:35:59;7.15;78.94
72650;SHT31;61467;50.674;4.618;2022-12-07T10:38:27;6.98;79.44
72650;SHT31;61467;50.674;4.618;2022-12-07T10:41:06;7.03;79.00
72650;SHT31;61467;50.674;4.618;2022-12-07T10:43:33;6.94;79.48
72650;SHT31;61467;50.674;4.618;2022-12-07T10:46:32;7.02;79.46
72650;SHT31;61467;50.674;4.618;2022-12-07T10:49:13;7.23;78.98
72650;SHT31;61467;50.674;4.618;2022-12-07T10:51:45;7.23;79.09
72650;SHT31;61467;50.674;4.618;2022-12-07T10:54:20;7.39;78.76
72650;SHT31;61467;50.674;4.618;2022-12-07T10:57:05;7.49;78.60
72650;SHT31;61467;50.674;4.618;2022-12-07T10:59:57;7.40;78.66
72650;SHT31;61467;50.674;4.618;2022-12-07T11:02:39;7.42;78.62
72650;SHT31;61467;50.674;4.618;2022-12-07T11:05:18;7.23;79.15
72650;SHT31;61467;50.674;4.618;2022-12-07T11:07:55;7.34;79.11
72650;SHT31;61467;50.674;4.618;2022-12-07T11:10:32;7.39;79.99
72650;SHT31;61467;50.674;4.618;2022-12-07T11:13:09;7.44;80.11
72650;SHT31;61467;50.674;4.618;2022-12-07T11:15:49;7.49;80.08
72650;SHT31;61467;50.674;4.618;2022-12-07T11:18:25;7.49;80.49
72650;SHT31;61467;50.674;4.618;2022-12-07T11:20:56;7.62;80.16
72650;SHT31;61467;50.674;4.618;2022-12-07T11:23:31;7.84;79.76
72650;SHT31;61467;50.674;4.618;2022-12-07T11:26:07;7.52;80.07
72650;SHT31;61467;50.674;4.618;2022-12-07T11:28:47;7.59;79.76
72650;SHT31;61467;50.674;4.618;2022-12-07T11:31:26;7.53;79.47
72650;SHT31;61467;50.674;4.618;2022-12-07T11:34:00;7.57;78.98
72650;SHT31;61467;50.674;4.618;2022-12-07T11:36:37;7.32;79.57
72650;SHT31;61467;50.674;4.618;2022-12-07T11:39:10;7.47;79.18
72650;SHT31;61467;50.674;4.618;2022-12-07T11:41:41;7.69;78.55
72650;SHT31;61467;50.674;4.618;2022-12-07T11:44:26;7.39;79.30
72650;SHT31;61467;50.674;4.618;2022-12-07T11:47:01;7.30;79.70
72650;SHT31;61467;50.674;4.618;2022-12-07T11:49:47;7.52;79.34
72650;SHT31;61467;50.674;4.618;2022-12-07T11:52:22;7.59;78.41
72650;SHT31;61467;50.674;4.618;2022-12-07T11:54:53;7.27;79.11
72650;SHT31;61467;50.674;4.618;2022-12-07T11:57:25;7.42;78.69
72650;SHT31;61467;50.674;4.618;2022-12-07T12:00:00;7.69;78.70
72650;SHT31;61467;50.674;4.618;2022-12-07T12:02:32;7.87;78.03
72650;SHT31;61467;50.674;4.618;2022-12-07T12:05:13;7.54;78.50
72650;SHT31;61467;50.674;4.618;2022-12-07T12:07:42;7.46;78.14
72650;SHT31;61467;50.674;4.618;2022-12-07T12:10:18;7.62;77.68
72650;SHT31;61467;50.674;4.618;2022-12-07T12:15:58;7.63;77.55
72650;SHT31;61467;50.674;4.618;2022-12-07T12:18:56;7.27;77.81
72650;SHT31;61467;50.674;4.618;2022-12-07T12:21:28;7.43;78.55
72650;SHT31;61467;50.674;4.618;2022-12-07T12:23:57;7.54;77.16
72650;SHT31;61467;50.674;4.618;2022-12-07T12:26:28;7.15;77.77
72650;SHT31;61467;50.674;4.618;2022-12-07T12:28:57;6.99;78.70
72650;SHT31;61467;50.674;4.618;2022-12-07T12:31:37;7.06;78.32
72650;SHT31;61467;50.674;4.618;2022-12-07T12:34:32;7.15;77.97
72650;SHT31;61467;50.674;4.618;2022-12-07T12:37:00;7.16;78.04
72650;SHT31;61467;50.674;4.618;2022-12-07T12:39:27;7.42;77.92
72650;SHT31;61467;50.674;4.618;2022-12-07T12:41:59;7.46;77.53
72650;SHT31;61467;50.674;4.618;2022-12-07T12:44:40;7.30;78.04
72650;SHT31;61467;50.674;4.618;2022-12-07T12:47:40;7.40;77.99
72650;SHT31;61467;50.674;4.618;2022-12-07T12:50:17;7.44;78.35
72650;SHT31;61467;50.674;4.618;2022-12-07T12:52:58;7.56;78.02
72650;SHT31;61467;50.674;4.618;2022-12-07T12:59:28;7.54;78.51
72650;SHT31;61467;50.674;4.618;2022-12-07T13:02:08;7.30;78.38
72650;SHT31;61467;50.674;4.618;2022-12-07T13:04:53;6.82;79.69
72650;SHT31;61467;50.674;4.618;2022-12-07T13:07:55;6.84;79.66
72650;SHT31;61467;50.674;4.618;2022-12-07T13:10:30;7.11;79.51
72650;SHT31;61467;50.674;4.618;2022-12-07T13:12:59;7.23;79.16
72650;SHT31;61467;50.674;4.618;2022-12-07T13:15:35;7.44;78.11
72650;SHT31;61467;50.674;4.618;2022-12-07T13:18:04;7.42;78.14
72650;SHT31;61467;50.674;4.618;2022-12-07T13:20:54;7.23;78.64
72650;SHT31;61467;50.674;4.618;2022-12-07T13:23:29;7.12;78.77
72650;SHT31;61467;50.674;4.618;2022-12-07T13:26:02;7.15;78.68
72650;SHT31;61467;50.674;4.618;2022-12-07T13:28:36;7.34;78.39
72650;SHT31;61467;50.674;4.618;2022-12-07T13:31:14;7.56;77.14
72650;SHT31;61467;50.674;4.618;2022-12-07T13:33:44;7.54;77.48
72650;SHT31;61467;50.674;4.618;2022-12-07T13:36:19;7.42;77.67
72650;SHT31;61467;50.674;4.618;2022-12-07T13:38:53;7.54;77.83
72650;SHT31;61467;50.674;4.618;2022-12-07T13:41:21;7.60;77.27
72650;SHT31;61467;50.674;4.618;2022-12-07T13:43:52;7.62;77.58
72650;SHT31;61467;50.674;4.618;2022-12-07T13:46:25;7.54;77.67
72650;SHT31;61467;50.674;4.618;2022-12-07T13:48:53;7.56;77.90
72650;SHT31;61467;50.674;4.618;2022-12-07T13:51:23;7.67;77.43
72650;SHT31;61467;50.674;4.618;2022-12-07T13:53:53;7.57;77.22
72650;SHT31;61467;50.674;4.618;2022-12-07T13:56:22;7.32;78.06
72650;SHT31;61467;50.674;4.618;2022-12-07T13:58:49;7.23;78.29
72650;SHT31;61467;50.674;4.618;2022-12-07T14:01:15;7.52;77.84
72650;SHT31;61467;50.674;4.618;2022-12-07T14:03:43;7.47;77.53
72650;SHT31;61467;50.674;4.618;2022-12-07T14:06:20;7.22;77.67
72650;SHT31;61467;50.674;4.618;2022-12-07T14:09:06;7.27;77.56
72650;SHT31;61467;50.674;4.618;2022-12-07T14:11:32;7.25;77.76
72650;SHT31;61467;50.674;4.618;2022-12-07T14:14:01;7.22;77.89
72650;SHT31;61467;50.674;4.618;2022-12-07T14:16:30;7.27;77.46
72650;SHT31;61467;50.674;4.618;2022-12-07T14:18:58;7.25;78.01
72650;SHT31;61467;50.674;4.618;2022-12-07T14:21:26;7.30;78.15
72650;SHT31;61467;50.674;4.618;2022-12-07T14:24:19;7.19;78.09
72650;SHT31;61467;50.674;4.618;2022-12-07T14:26:47;7.08;78.14
72650;SHT31;61467;50.674;4.618;2022-12-07T14:29:32;7.30;77.40
72650;SHT31;61467;50.674;4.618;2022-12-07T14:32:22;7.34;77.05
72650;SHT31;61467;50.674;4.618;2022-12-07T14:34:58;7.40;77.74
72650;SHT31;61467;50.674;4.618;2022-12-07T14:37:27;7.32;77.79
72650;SHT31;61467;50.674;4.618;2022-12-07T14:39:57;7.06;78.29
72650;SHT31;61467;50.674;4.618;2022-12-07T14:42:27;7.25;78.15
72650;SHT31;61467;50.674;4.618;2022-12-07T14:44:55;7.11;78.24
72650;SHT31;61467;50.674;4.618;2022-12-07T14:47:22;7.08;78.86
72650;SHT31;61467;50.674;4.618;2022-12-07T14:49:49;7.29;77.68
72650;SHT31;61467;50.674;4.618;2022-12-07T14:52:19;7.20;77.92
72650;SHT31;61467;50.674;4.618;2022-12-07T14:54:47;7.33;77.72
72650;SHT31;61467;50.674;4.618;2022-12-07T14:57:16;7.16;78.32
72650;SHT31;61467;50.674;4.618;2022-12-07T14:59:42;7.12;78.94
72650;SHT31;61467;50.674;4.618;2022-12-07T15:02:11;7.27;78.98
72650;SHT31;61467;50.674;4.618;2022-12-07T15:04:40;7.16;79.21
72650;SHT31;61467;50.674;4.618;2022-12-07T15:07:12;7.30;79.15
72650;SHT31;61467;50.674;4.618;2022-12-07T15:09:41;7.08;79.70
72650;SHT31;61467;50.674;4.618;2022-12-07T15:12:08;7.11;79.92
72650;SHT31;61467;50.674;4.618;2022-12-07T15:14:36;6.99;80.21
72650;SHT31;61467;50.674;4.618;2022-12-07T15:17:03;6.96;80.30
72650;SHT31;61467;50.674;4.618;2022-12-07T15:19:29;7.19;80.18
72650;SHT31;61467;50.674;4.618;2022-12-07T15:21:57;7.11;80.74
72650;SHT31;61467;50.674;4.618;2022-12-07T15:24:25;6.82;81.15
72650;SHT31;61467;50.674;4.618;2022-12-07T15:26:52;6.63;81.51
72650;SHT31;61467;50.674;4.618;2022-12-07T15:29:19;6.67;81.20
72650;SHT31;61467;50.674;4.618;2022-12-07T15:31:48;6.54;80.39
72650;SHT31;61467;50.674;4.618;2022-12-07T15:34:14;6.47;80.93
72650;SHT31;61467;50.674;4.618;2022-12-07T15:36:41;5.98;82.49
72650;SHT31;61467;50.674;4.618;2022-12-07T15:39:08;6.27;82.33
72650;SHT31;61467;50.674;4.618;2022-12-07T15:41:35;6.38;80.95
72650;SHT31;61467;50.674;4.618;2022-12-07T15:44:02;6.19;81.05
72650;SHT31;61467;50.674;4.618;2022-12-07T15:46:48;6.44;81.26
72650;SHT31;61467;50.674;4.618;2022-12-07T15:49:17;6.54;80.96
72650;SHT31;61467;50.674;4.618;2022-12-07T15:51:44;6.40;80.83
72650;SHT31;61467;50.674;4.618;2022-12-07T15:54:13;6.58;80.32
72650;SHT31;61467;50.674;4.618;2022-12-07T15:56:40;6.71;79.36
72650;SHT31;61467;50.674;4.618;2022-12-07T15:59:06;6.72;78.91
72650;SHT31;61467;50.674;4.618;2022-12-07T16:01:33;6.70;79.14
72650;SHT31;61467;50.674;4.618;2022-12-07T16:04:01;6.78;79.66
72650;SHT31;61467;50.674;4.618;2022-12-07T16:06:28;6.72;79.91
72650;SHT31;61467;50.674;4.618;2022-12-07T16:08:55;6.87;79.60
72650;SHT31;61467;50.674;4.618;2022-12-07T16:11:22;6.87;79.05
72650;SHT31;61467;50.674;4.618;2022-12-07T16:13:49;6.91;78.95
72650;SHT31;61467;50.674;4.618;2022-12-07T16:16:17;7.03;79.12